Time;durP1;ratioP1;P1;durP2;ratioP2;P2;SDS_P1;SDS_P2;PMS_P1;PMS_P2;Temp;Humidity;BMP_temperature;BMP_pressure;BME280_temperature;BME280_humidity;BME280_pressure;Samples;Min_cycle;Max_cycle;Signal;HPM_P1;HPM_P2
2021/12/20 14:52:05;;;;;;;11.43;1.73;;;;;;;-142.75;100.00;79069.06;5111432;27;1220766;-67
2021/12/20 14:54:40;;;;;;;11.70;2.10;;;;;;;-142.75;100.00;79055.28;5107276;28;20638;-69
2021/12/20 14:57:12;;;;;;;12.20;1.97;;;;;;;-142.75;100.00;79063.16;5106776;28;20034;-69
2021/12/20 14:59:37;;;;;;;6.73;1.50;;;;;;;-142.75;100.00;79071.03;5106621;28;20030;-69
2021/12/20 15:02:05;;;;;;;5.78;1.35;;;;;;;-142.75;100.00;79071.03;5106470;28;20027;-69
2021/12/20 15:04:31;;;;;;;6.60;1.67;;;;;;;-142.75;100.00;79074.97;5107382;28;20016;-69
2021/12/20 15:06:59;;;;;;;11.63;1.67;;;;;;;-142.75;100.00;79071.03;5107086;28;20477;-69
2021/12/20 15:09:27;;;;;;;10.60;1.93;;;;;;;-142.75;100.00;79082.84;5107224;28;20273;-69
2021/12/20 15:11:53;;;;;;;10.10;2.77;;;;;;;-142.75;100.00;79090.72;5105454;28;20042;-69
2021/12/20 15:14:19;;;;;;;8.23;1.53;;;;;;;-142.75;100.00;79090.72;5107075;28;20501;-69
2021/12/20 15:16:45;;;;;;;7.38;1.67;;;;;;;-142.75;100.00;79086.78;5106565;28;20027;-69
2021/12/20 15:19:11;;;;;;;7.20;1.30;;;;;;;-142.75;100.00;79098.63;5106799;28;20032;-69
2021/12/20 15:21:36;;;;;;;7.25;1.75;;;;;;;-142.75;100.00;79098.63;5105740;28;20099;-69
2021/12/20 15:24:03;;;;;;;5.35;1.30;;;;;;;-142.75;100.00;58249.25;5106475;28;20389;-69
2021/12/20 15:26:29;;;;;;;9.17;1.60;;;;;;;-142.75;100.00;58249.25;5104990;28;20169;-69
2021/12/20 15:28:58;;;;;;;12.68;2.05;;;;;;;-142.75;100.00;58249.25;5106442;28;20524;-69
2021/12/20 15:31:25;;;;;;;6.87;2.60;;;;;;;-142.75;100.00;58249.25;5104774;28;20023;-69
2021/12/20 15:33:50;;;;;;;;;;;;;;;-142.75;100.00;58249.25;5106749;28;20036;-69
2021/12/20 15:36:15;;;;;;;9.93;1.80;;;;;;;-142.75;100.00;58249.25;5106265;28;19916;-69
2021/12/20 15:38:40;;;;;;;5.57;1.40;;;;;;;-142.75;100.00;58249.25;5106329;28;20023;-69
2021/12/20 15:41:06;;;;;;;5.85;1.90;;;;;;;-142.75;100.00;58249.25;5105448;28;20290;-69
2021/12/20 15:43:31;;;;;;;6.22;1.02;;;;;;;-142.75;100.00;58249.25;5106491;28;20125;-69
2021/12/20 15:45:58;;;;;;;5.65;1.42;;;;;;;-142.75;100.00;58249.25;5105898;28;20042;-69
2021/12/20 15:48:23;;;;;;;9.90;2.30;;;;;;;-142.75;100.00;58249.25;5106561;28;20016;-69
2021/12/20 15:50:49;;;;;;;6.47;1.30;;;;;;;-142.75;100.00;58249.25;5105019;28;20073;-69
2021/12/20 15:53:16;;;;;;;;;;;;;;;-142.75;100.00;58249.25;5105036;28;20034;-69
2021/12/20 15:55:43;;;;;;;4.57;1.00;;;;;;;-142.75;100.00;58249.25;5105928;28;19912;-68
2021/12/20 15:58:09;;;;;;;12.23;1.73;;;;;;;-142.75;100.00;58249.25;5106059;28;20081;-69
2021/12/20 16:00:34;;;;;;;5.30;1.43;;;;;;;-142.75;100.00;58249.25;5102022;28;20032;-69
2021/12/20 16:03:00;;;;;;;5.60;1.13;;;;;;;-142.75;100.00;58249.25;5073411;28;20559;-68
2021/12/20 16:05:25;;;;;;;8.40;1.92;;;;;;;-142.75;100.00;58249.25;5070916;28;20032;-70
2021/12/20 16:07:51;;;;;;;7.43;1.48;;;;;;;-142.75;100.00;58249.25;5071997;28;20039;-71
2021/12/20 16:10:17;;;;;;;6.35;1.30;;;;;;;-142.75;100.00;58249.25;5071399;28;20032;-70
2021/12/20 16:12:43;;;;;;;6.82;1.30;;;;;;;-142.75;100.00;58249.25;5070406;28;20119;-70
2021/12/20 16:15:10;;;;;;;8.13;1.80;;;;;;;-142.75;100.00;58249.25;5070527;28;20516;-69
2021/12/20 16:17:35;;;;;;;9.37;3.67;;;;;;;-142.75;100.00;58249.25;5072373;28;20413;-70
2021/12/20 16:20:02;;;;;;;9.63;4.13;;;;;;;-142.75;100.00;58249.25;5070594;28;20040;-70
2021/12/20 16:22:28;;;;;;;13.07;3.80;;;;;;;-142.75;100.00;58249.25;5070632;28;20111;-70
2021/12/20 16:24:53;;;;;;;7.72;3.88;;;;;;;-142.75;100.00;58249.25;5070954;28;20111;-70
2021/12/20 16:27:18;;;;;;;12.98;3.47;;;;;;;-142.75;100.00;58249.25;5085428;28;20032;-70
2021/12/20 16:30:00;;;;;;;8.00;2.33;;;;;;;-142.75;100.00;58249.25;5069117;28;20481;-69
2021/12/20 16:32:29;;;;;;;7.47;3.00;;;;;;;-142.75;100.00;58249.25;5070095;28;20030;-68
2021/12/20 16:34:55;;;;;;;76.60;63.13;;;;;;;-142.75;100.00;58249.25;5070608;28;20058;-68
2021/12/20 16:37:21;;;;;;;102.63;92.10;;;;;;;-142.75;100.00;58249.25;5071562;28;20103;-68
2021/12/20 16:39:46;;;;;;;76.35;68.05;;;;;;;-142.75;100.00;58249.25;5070712;28;20044;-68
2021/12/20 16:42:11;;;;;;;22.42;18.20;;;;;;;-142.75;100.00;58249.25;5071956;28;20036;-67
2021/12/20 16:44:38;;;;;;;28.35;21.63;;;;;;;-142.75;100.00;58249.25;5071921;28;20036;-69
2021/12/20 16:47:24;;;;;;;16.70;11.43;;;;;;;-142.75;100.00;58249.25;5071075;28;20028;-69
2021/12/20 16:49:52;;;;;;;19.50;15.57;;;;;;;-142.75;100.00;58249.25;5070424;28;20033;-69
2021/12/20 16:52:19;;;;;;;23.70;16.40;;;;;;;-142.75;100.00;58249.25;5069345;28;20024;-69
2021/12/20 16:54:46;;;;;;;21.00;12.95;;;;;;;-142.75;100.00;58249.25;5070063;28;20440;-68
2021/12/20 16:57:12;;;;;;;13.00;7.97;;;;;;;-142.75;100.00;58249.25;5071153;28;20119;-69
2021/12/20 16:59:38;;;;;;;14.48;5.35;;;;;;;-142.75;100.00;58249.25;5070546;28;20505;-69
2021/12/20 17:02:05;;;;;;;11.27;5.18;;;;;;;-142.75;100.00;58249.25;5070506;28;20025;-68
2021/12/20 17:06:57;;;;;;;10.10;2.80;;;;;;;-142.75;100.00;58249.25;5070877;28;20123;-70
2021/12/20 17:09:22;;;;;;;14.77;3.10;;;;;;;-142.75;100.00;58249.25;5070859;28;20270;-68
2021/12/20 17:11:48;;;;;;;21.77;8.40;;;;;;;-142.75;100.00;58249.25;5069961;28;20486;-68
2021/12/20 17:14:13;;;;;;;12.82;4.18;;;;;;;-142.75;100.00;58249.25;5069792;28;20074;-68
2021/12/20 17:16:38;;;;;;;12.77;5.55;;;;;;;-142.75;100.00;58249.25;5070624;28;20031;-68
2021/12/20 17:19:04;;;;;;;12.32;4.57;;;;;;;-142.75;100.00;58249.25;5070635;28;20024;-68
2021/12/20 17:21:30;;;;;;;12.75;3.53;;;;;;;-142.75;100.00;58249.25;5068585;28;20025;-69
2021/12/20 17:23:56;;;;;;;7.60;2.55;;;;;;;-142.75;100.00;58249.25;5070127;28;20035;-68
2021/12/20 17:26:21;;;;;;;9.80;3.23;;;;;;;-142.75;100.00;58249.25;5070859;28;20020;-69
2021/12/20 17:28:46;;;;;;;9.90;3.20;;;;;;;-142.75;100.00;58249.25;5070515;28;20365;-69
2021/12/20 17:31:12;;;;;;;7.03;2.33;;;;;;;-142.75;100.00;58249.25;5070045;28;20132;-69
2021/12/20 17:33:37;;;;;;;3.45;1.55;;;;;;;-142.75;100.00;58249.25;5070164;28;20050;-69
2021/12/20 17:36:03;;;;;;;7.23;1.70;;;;;;;-142.75;100.00;58249.25;5070344;28;20052;-69
2021/12/20 17:38:28;;;;;;;14.93;2.63;;;;;;;-142.75;100.00;58249.25;5070649;28;20078;-69
2021/12/20 17:40:54;;;;;;;9.20;2.42;;;;;;;-142.75;100.00;58249.25;5069077;28;20502;-69
2021/12/20 17:43:21;;;;;;;7.18;2.03;;;;;;;-142.75;100.00;58249.25;5070313;28;20020;-69
2021/12/20 17:45:46;;;;;;;10.43;2.37;;;;;;;-142.75;100.00;58249.25;5070155;28;20028;-68
2021/12/20 17:48:11;;;;;;;9.88;3.28;;;;;;;-142.75;100.00;58249.25;5069974;28;20153;-69
2021/12/20 17:50:37;;;;;;;9.50;3.03;;;;;;;-142.75;100.00;58249.25;5069178;28;20111;-69
2021/12/20 17:53:03;;;;;;;11.98;3.60;;;;;;;-142.75;100.00;58249.25;5068272;28;20418;-68
2021/12/20 17:55:28;;;;;;;6.32;2.15;;;;;;;-142.75;100.00;58249.25;5070252;28;20024;-69
2021/12/20 17:57:53;;;;;;;8.25;2.28;;;;;;;-142.75;100.00;58249.25;5069634;28;20067;-66
2021/12/20 18:00:22;;;;;;;6.80;2.10;;;;;;;-142.75;100.00;58249.25;5069286;28;20033;-67
2021/12/20 18:02:48;;;;;;;7.97;2.27;;;;;;;-142.75;100.00;58249.25;5069790;28;20787;-69
2021/12/20 18:05:14;;;;;;;7.10;1.73;;;;;;;-142.75;100.00;58249.25;5069923;28;20025;-69
2021/12/20 18:07:41;;;;;;;6.95;2.35;;;;;;;-142.75;100.00;58249.25;5069578;28;20090;-69
2021/12/20 18:10:07;;;;;;;6.23;2.27;;;;;;;-142.75;100.00;58249.25;5068968;28;20031;-69
2021/12/20 18:12:33;;;;;;;7.57;1.93;;;;;;;-142.75;100.00;58249.25;5068625;28;20069;-69
2021/12/20 18:14:59;;;;;;;9.85;4.10;;;;;;;-142.75;100.00;58249.25;5069423;28;20103;-69
2021/12/20 18:17:24;;;;;;;10.82;2.92;;;;;;;-142.75;100.00;58249.25;5069943;28;20394;-69
2021/12/20 18:19:50;;;;;;;9.02;2.83;;;;;;;-142.75;100.00;58249.25;5068690;28;20031;-68
2021/12/20 18:22:15;;;;;;;7.55;2.60;;;;;;;-142.75;100.00;58249.25;5069539;28;20036;-68
2021/12/20 18:24:41;;;;;;;9.07;3.20;;;;;;;-142.75;100.00;58249.25;5069201;28;20013;-68
2021/12/20 18:27:07;;;;;;;7.68;2.47;;;;;;;-142.75;100.00;58249.25;5069423;28;20470;-68
2021/12/20 18:29:32;;;;;;;8.73;3.10;;;;;;;-142.75;100.00;58249.25;5069978;28;20025;-69
2021/12/20 18:31:58;;;;;;;5.40;2.67;;;;;;;-142.75;100.00;58249.25;5068184;28;20054;-68
2021/12/20 18:34:24;;;;;;;8.95;3.30;;;;;;;-142.75;100.00;58249.25;5069742;28;20028;-68
2021/12/20 18:36:49;;;;;;;;;;;;;;;-142.75;100.00;58249.25;5069942;28;20393;-68
2021/12/20 18:39:14;;;;;;;10.77;3.20;;;;;;;-142.75;100.00;58249.25;5069182;28;19912;-68
2021/12/20 18:41:42;;;;;;;6.65;2.75;;;;;;;-142.75;100.00;58249.25;5068591;28;20540;-68
2021/12/20 18:44:08;;;;;;;10.20;3.13;;;;;;;-142.75;100.00;58249.25;5069499;28;20556;-69
2021/12/20 18:46:34;;;;;;;;;;;;;;;-142.75;100.00;58249.25;5069899;28;20090;-69
2021/12/20 18:48:59;;;;;;;11.93;4.00;;;;;;;-142.75;100.00;58249.25;5069017;28;19916;-69
2021/12/20 18:51:25;;;;;;;12.77;3.97;;;;;;;-142.75;100.00;58249.25;5068594;28;20016;-69
2021/12/20 18:53:51;;;;;;;10.68;4.07;;;;;;;-142.75;100.00;58249.25;5068023;28;20056;-69
2021/12/20 18:56:16;;;;;;;;;;;;;;;-142.75;100.00;58249.25;5070113;28;20391;-69
2021/12/20 18:58:42;;;;;;;9.90;3.63;;;;;;;-142.75;100.00;58249.25;5069216;28;19927;-68
2021/12/20 19:01:08;;;;;;;9.20;3.22;;;;;;;-142.75;100.00;58249.25;5068222;28;20032;-67
2021/12/20 19:03:34;;;;;;;6.57;2.87;;;;;;;-142.75;100.00;58249.25;5066230;22;20038;-66
2021/12/20 19:05:59;;;;;;;11.95;3.10;;;;;;;-142.75;100.00;58249.25;5016541;28;20021;-66
2021/12/20 19:08:26;;;;;;;8.38;3.00;;;;;;;-142.75;100.00;58249.25;5023912;28;20021;-66
2021/12/20 19:11:02;;;;;;;8.23;3.40;;;;;;;-142.75;100.00;58249.25;5014878;28;20029;-72
2021/12/20 19:13:47;;;;;;;6.57;2.40;;;;;;;-142.75;100.00;58249.25;5017613;28;20475;-68
2021/12/20 19:16:14;;;;;;;10.67;2.70;;;;;;;-142.75;100.00;58249.25;5019600;28;20030;-65
2021/12/20 19:18:39;;;;;;;10.03;4.87;;;;;;;-142.75;100.00;58249.25;5013333;28;20029;-65
2021/12/20 19:21:04;;;;;;;16.00;6.03;;;;;;;-142.75;100.00;58249.25;5018856;28;20037;-67
2021/12/20 19:23:29;;;;;;;19.70;6.63;;;;;;;-142.75;100.00;58249.25;5025566;28;20072;-68
2021/12/20 19:25:56;;;;;;;17.80;6.23;;;;;;;-142.75;100.00;58249.25;5017895;28;20280;-68
2021/12/20 19:28:22;;;;;;;12.40;3.33;;;;;;;-142.75;100.00;58249.25;5008140;28;20026;-66
2021/12/20 19:30:49;;;;;;;;;;;;;;;-142.75;100.00;58249.25;5016626;28;20014;-68
2021/12/20 19:33:14;;;;;;;13.77;3.87;;;;;;;-142.75;100.00;58249.25;5016726;28;19913;-66
2021/12/20 19:35:39;;;;;;;12.25;3.67;;;;;;;-142.75;100.00;58249.25;5022070;28;20029;-68
2021/12/20 19:38:06;;;;;;;10.77;5.68;;;;;;;-142.75;100.00;58249.25;5013348;28;20026;-67
2021/12/20 19:40:32;;;;;;;11.23;4.17;;;;;;;-142.75;100.00;58249.25;5014115;28;20037;-69
2021/12/20 19:42:57;;;;;;;11.88;3.65;;;;;;;-142.75;100.00;58249.25;5017172;28;20026;-68
2021/12/20 19:45:22;;;;;;;11.63;3.83;;;;;;;-142.75;100.00;58249.25;5014865;28;20053;-66
2021/12/20 19:47:48;;;;;;;11.63;4.25;;;;;;;-142.75;100.00;58249.25;5013723;28;20661;-66
2021/12/20 19:50:13;;;;;;;9.52;3.72;;;;;;;-142.75;100.00;58249.25;5022865;28;20028;-66
2021/12/20 19:52:39;;;;;;;14.82;4.15;;;;;;;-142.75;100.00;58249.25;5019328;28;20029;-65
2021/12/20 19:55:06;;;;;;;11.43;4.37;;;;;;;-142.75;100.00;58249.25;5014560;28;20697;-66
2021/12/20 19:57:32;;;;;;;10.93;3.60;;;;;;;-142.75;100.00;58249.25;5017296;28;20025;-66
2021/12/20 19:59:57;;;;;;;11.80;3.15;;;;;;;-142.75;100.00;58249.25;5015241;28;20025;-66
2021/12/20 20:02:23;;;;;;;6.65;3.30;;;;;;;-142.75;100.00;58249.25;5030096;28;20025;-64
2021/12/20 20:04:48;;;;;;;12.93;5.45;;;;;;;-142.75;100.00;58249.25;5024754;28;20597;-65
2021/12/20 20:07:14;;;;;;;9.43;3.72;;;;;;;-142.75;100.00;58249.25;5012316;28;20113;-67
2021/12/20 20:09:41;;;;;;;10.50;3.28;;;;;;;-142.75;100.00;58249.25;5010457;28;20153;-66
2021/12/20 20:12:10;;;;;;;6.87;2.83;;;;;;;-142.75;100.00;58249.25;5018728;28;20057;-65
2021/12/20 20:14:36;;;;;;;12.47;4.23;;;;;;;-142.75;100.00;58249.25;5024808;28;20048;-68
2021/12/20 20:17:02;;;;;;;11.10;4.50;;;;;;;-142.75;100.00;58249.25;5022772;28;20032;-65
2021/12/20 20:19:28;;;;;;;13.13;5.03;;;;;;;-142.75;100.00;58249.25;5019165;28;20024;-65
2021/12/20 20:21:54;;;;;;;9.40;3.67;;;;;;;-142.75;100.00;58249.25;5019640;28;20026;-65
2021/12/20 20:24:19;;;;;;;12.93;3.83;;;;;;;-142.75;100.00;58249.25;5023487;28;20049;-65
2021/12/20 20:26:45;;;;;;;11.48;3.70;;;;;;;-142.75;100.00;58249.25;5011699;28;20126;-67
2021/12/20 20:29:14;;;;;;;14.77;4.70;;;;;;;-142.75;100.00;58249.25;5022554;28;20034;-65
2021/12/20 20:31:41;;;;;;;9.10;4.20;;;;;;;-142.75;100.00;58249.25;5021307;28;20014;-65
2021/12/20 20:34:07;;;;;;;8.20;4.00;;;;;;;-142.75;100.00;58249.25;5015553;28;20034;-66
2021/12/20 20:36:35;;;;;;;11.70;4.00;;;;;;;-142.75;100.00;58249.25;5014760;28;20053;-65
2021/12/20 20:39:06;;;;;;;11.53;4.07;;;;;;;-142.75;100.00;58249.25;5015543;28;20061;-67
2021/12/20 20:41:31;;;;;;;10.03;4.47;;;;;;;-142.75;100.00;58249.25;5021584;28;20032;-66
2021/12/20 20:43:57;;;;;;;9.95;4.30;;;;;;;-142.75;100.00;58249.25;5021828;28;20018;-64
2021/12/20 20:46:24;;;;;;;17.10;5.30;;;;;;;-142.75;100.00;58249.25;5017152;28;20105;-66
2021/12/20 20:48:51;;;;;;;11.90;4.83;;;;;;;-142.75;100.00;58249.25;5017803;28;20033;-66
2021/12/20 20:51:16;;;;;;;12.97;4.70;;;;;;;-142.75;100.00;58249.25;5016772;28;20022;-67
2021/12/20 20:53:43;;;;;;;17.42;6.40;;;;;;;-142.75;100.00;58249.25;5020113;28;20033;-66
2021/12/20 20:56:10;;;;;;;;;;;;;;;-142.75;100.00;58249.25;5015847;28;20841;-65
2021/12/20 20:58:36;;;;;;;18.60;7.22;;;;;;;-142.75;100.00;58249.25;5009153;28;19981;-67
2021/12/20 21:03:49;;;;;;;20.23;7.40;;;;;;;-142.75;100.00;58249.25;5026719;28;20037;-68
2021/12/20 21:06:14;;;;;;;18.00;7.53;;;;;;;-142.75;100.00;58249.25;5018887;28;20022;-67
2021/12/20 21:08:39;;;;;;;16.42;7.03;;;;;;;-142.75;100.00;58249.25;5014895;28;20312;-67
2021/12/20 21:11:05;;;;;;;17.40;7.43;;;;;;;-142.75;100.00;58249.25;5024113;28;20028;-67
2021/12/20 21:13:30;;;;;;;17.15;6.45;;;;;;;-142.75;100.00;58249.25;5021706;28;20079;-66
2021/12/20 21:15:55;;;;;;;21.40;7.65;;;;;;;-142.75;100.00;58249.25;5017410;28;20036;-68
2021/12/20 21:18:21;;;;;;;12.55;6.82;;;;;;;-142.75;100.00;58249.25;5019181;28;20040;-67
2021/12/20 21:20:46;;;;;;;16.13;6.63;;;;;;;-142.75;100.00;58249.25;5027729;28;20041;-67
2021/12/20 21:23:11;;;;;;;16.42;7.20;;;;;;;-142.75;100.00;58249.25;5015082;28;20057;-67
2021/12/20 21:25:37;;;;;;;14.27;6.80;;;;;;;-142.75;100.00;58249.25;5011207;28;20041;-67
2021/12/20 21:28:03;;;;;;;;;;;;;;;-142.75;100.00;58249.25;5017399;28;20503;-67
2021/12/20 21:30:28;;;;;;;17.90;7.00;;;;;;;-142.75;100.00;58249.25;5028109;28;19913;-71
2021/12/20 21:32:54;;;;;;;19.10;6.55;;;;;;;-142.75;100.00;58249.25;5015273;28;20033;-66
2021/12/20 21:35:21;;;;;;;14.27;7.20;;;;;;;-142.75;100.00;58249.25;5020817;28;20061;-67
2021/12/20 21:37:47;;;;;;;15.77;7.07;;;;;;;-142.75;100.00;58249.25;5016853;28;20086;-65
2021/12/20 21:40:12;;;;;;;18.13;8.80;;;;;;;-142.75;100.00;58249.25;5011447;28;20034;-68
2021/12/20 21:42:37;;;;;;;20.10;7.00;;;;;;;-142.75;100.00;58249.25;5021330;28;20518;-66
2021/12/20 21:45:05;;;;;;;20.55;6.60;;;;;;;-142.75;100.00;58249.25;5029305;28;20032;-67
2021/12/20 21:47:30;;;;;;;21.60;7.40;;;;;;;-142.75;100.00;58249.25;5015341;28;20480;-67
2021/12/20 21:49:55;;;;;;;16.08;6.53;;;;;;;-142.75;100.00;58249.25;5017299;28;20052;-66
2021/12/20 21:52:21;;;;;;;19.10;6.70;;;;;;;-142.75;100.00;58249.25;5022588;28;20117;-66
2021/12/20 21:54:46;;;;;;;16.95;7.00;;;;;;;-142.75;100.00;58249.25;5017968;28;20079;-67
2021/12/20 21:57:11;;;;;;;13.65;5.72;;;;;;;-142.75;100.00;58249.25;5022388;28;20518;-67
2021/12/20 21:59:37;;;;;;;15.57;6.20;;;;;;;-142.75;100.00;58249.25;5015209;28;20060;-69
2021/12/20 22:02:03;;;;;;;18.48;6.68;;;;;;;-142.75;100.00;58249.25;5014182;28;20029;-67
2021/12/20 22:04:29;;;;;;;;;;;;;;;-142.75;100.00;58249.25;5022406;28;20516;-64
2021/12/20 22:06:54;;;;;;;13.70;5.73;;;;;;;-142.75;100.00;58249.25;5017124;28;19917;-67
2021/12/20 22:09:19;;;;;;;16.13;6.00;;;;;;;-142.75;100.00;58249.25;5012306;28;20025;-67
2021/12/20 22:11:45;;;;;;;17.77;6.70;;;;;;;-142.75;100.00;58249.25;5022185;28;20029;-67
2021/12/20 22:14:10;;;;;;;11.25;5.78;;;;;;;-142.75;100.00;58249.25;5024093;28;21409;-67
2021/12/20 22:16:35;;;;;;;15.25;7.00;;;;;;;-142.75;100.00;58249.25;5010906;28;20095;-67
2021/12/20 22:19:01;;;;;;;15.38;6.32;;;;;;;-142.75;100.00;58249.25;5027511;28;20445;-67
2021/12/20 22:21:27;;;;;;;16.35;6.68;;;;;;;-142.75;100.00;58249.25;5026903;28;20061;-67
2021/12/20 22:23:53;;;;;;;20.85;7.15;;;;;;;-142.75;100.00;58249.25;5014890;28;20029;-67
2021/12/20 22:26:18;;;;;;;13.25;6.15;;;;;;;-142.75;100.00;58249.25;5027288;28;20521;-66
2021/12/20 22:28:43;;;;;;;13.50;6.47;;;;;;;-142.75;100.00;58249.25;5022357;28;20018;-67
2021/12/20 22:31:08;;;;;;;11.13;5.85;;;;;;;-142.75;100.00;58249.25;5016409;28;20025;-68
2021/12/20 22:33:34;;;;;;;13.82;7.40;;;;;;;-142.75;100.00;58249.25;5022033;28;20064;-67
2021/12/20 22:35:59;;;;;;;13.70;6.50;;;;;;;-142.75;100.00;58249.25;5016666;28;20124;-67
2021/12/20 22:38:24;;;;;;;8.45;6.05;;;;;;;-142.75;100.00;58249.25;5020511;28;20028;-67
2021/12/20 22:40:50;;;;;;;14.25;5.38;;;;;;;-142.75;100.00;58249.25;5022451;28;20052;-68
2021/12/20 22:43:15;;;;;;;13.82;6.32;;;;;;;-142.75;100.00;58249.25;5008812;28;20029;-67
2021/12/20 22:45:40;;;;;;;13.55;6.95;;;;;;;-142.75;100.00;58249.25;5018410;28;20555;-68
2021/12/20 22:48:06;;;;;;;15.18;7.00;;;;;;;-142.75;100.00;58249.25;5011483;28;20033;-66
2021/12/20 22:50:31;;;;;;;18.67;7.90;;;;;;;-142.75;100.00;58249.25;5020424;28;20025;-67
2021/12/20 22:52:56;;;;;;;13.05;7.15;;;;;;;-142.75;100.00;58249.25;5019413;28;20399;-66
2021/12/20 22:55:22;;;;;;;20.15;7.90;;;;;;;-142.75;100.00;58249.25;5013929;28;20025;-65
2021/12/20 22:57:47;;;;;;;15.27;7.35;;;;;;;-142.75;100.00;58249.25;5016412;28;20037;-67
2021/12/20 23:00:35;;;;;;;16.08;7.78;;;;;;;-142.75;100.00;58249.25;5025636;28;20115;-65
2021/12/20 23:03:02;;;;;;;12.23;7.00;;;;;;;-142.75;100.00;58249.25;5012727;28;20093;-66
2021/12/20 23:05:28;;;;;;;16.87;6.50;;;;;;;-142.75;100.00;58249.25;5018374;28;20032;-67
2021/12/20 23:07:53;;;;;;;12.15;6.13;;;;;;;-142.75;100.00;58249.25;5027558;28;20021;-65
2021/12/20 23:10:20;;;;;;;16.65;8.13;;;;;;;-142.75;100.00;58249.25;5027089;28;20024;-66
